Alpine, Mississippi
Current Conditions -  °F | °C
As of 8:53 AM on Thursday 23 Oct 2014 (Local Time) from KTUP Reporting Station
Clear Clear  
Wind Chill:   Ceiling: Unl
Heat Index:   Visibility: 10mi
Dew Point:   Wind: 5mph
Humidity: 80%   Direction: 50°NE
Pressure: 30.2"   Gusts: NA
Location:  34.4333°N, 88.8629°W
Report Text: KTUP 231353Z 05004KT 10SM CLR 09/06 A3020 RMK AO2 SLP226 T00940061
Loading
Personal Weather Stations






























Interactive Weather Map
Tropical Storm Tracking
New forecast layout! Learn more

10-Day Weather Forecast

Advertisements
Track Severe Weather on mobile